sensor_id;sensor_type;location;lat;lon;timestamp;P1;durP1;ratioP1;P2;durP2;ratioP2
33138;SDS011;19501;50.948;5.316;2023-08-30T00:01:55;24.38;;;11.38;;
33138;SDS011;19501;50.948;5.316;2023-08-30T00:04:21;26.48;;;10.90;;
33138;SDS011;19501;50.948;5.316;2023-08-30T00:06:47;24.77;;;11.57;;
33138;SDS011;19501;50.948;5.316;2023-08-30T00:09:13;25.38;;;12.90;;
33138;SDS011;19501;50.948;5.316;2023-08-30T00:11:39;26.45;;;13.68;;
33138;SDS011;19501;50.948;5.316;2023-08-30T00:14:05;28.08;;;14.55;;
33138;SDS011;19501;50.948;5.316;2023-08-30T00:16:33;32.10;;;14.85;;
33138;SDS011;19501;50.948;5.316;2023-08-30T00:18:59;29.10;;;16.20;;
33138;SDS011;19501;50.948;5.316;2023-08-30T00:21:28;29.75;;;16.73;;
33138;SDS011;19501;50.948;5.316;2023-08-30T00:23:53;30.10;;;16.90;;
33138;SDS011;19501;50.948;5.316;2023-08-30T00:26:19;31.73;;;18.17;;
33138;SDS011;19501;50.948;5.316;2023-08-30T00:28:44;32.22;;;18.50;;
33138;SDS011;19501;50.948;5.316;2023-08-30T00:31:12;28.35;;;16.73;;
33138;SDS011;19501;50.948;5.316;2023-08-30T00:33:38;28.75;;;15.82;;
33138;SDS011;19501;50.948;5.316;2023-08-30T00:36:04;33.20;;;18.55;;
33138;SDS011;19501;50.948;5.316;2023-08-30T00:38:30;31.25;;;17.85;;
33138;SDS011;19501;50.948;5.316;2023-08-30T00:40:58;31.47;;;18.53;;
33138;SDS011;19501;50.948;5.316;2023-08-30T00:43:24;35.50;;;20.48;;
33138;SDS011;19501;50.948;5.316;2023-08-30T00:45:50;32.55;;;18.90;;
33138;SDS011;19501;50.948;5.316;2023-08-30T00:48:16;37.42;;;20.25;;
33138;SDS011;19501;50.948;5.316;2023-08-30T00:50:44;30.50;;;18.30;;
33138;SDS011;19501;50.948;5.316;2023-08-30T00:53:13;31.70;;;18.73;;
33138;SDS011;19501;50.948;5.316;2023-08-30T00:55:41;33.08;;;20.00;;
33138;SDS011;19501;50.948;5.316;2023-08-30T00:58:07;37.22;;;21.60;;
33138;SDS011;19501;50.948;5.316;2023-08-30T01:00:34;35.03;;;20.20;;
33138;SDS011;19501;50.948;5.316;2023-08-30T01:03:00;33.33;;;18.92;;
33138;SDS011;19501;50.948;5.316;2023-08-30T01:05:26;35.60;;;20.02;;
33138;SDS011;19501;50.948;5.316;2023-08-30T01:07:53;30.88;;;18.80;;
33138;SDS011;19501;50.948;5.316;2023-08-30T01:10:20;32.65;;;18.02;;
33138;SDS011;19501;50.948;5.316;2023-08-30T01:12:53;32.47;;;19.20;;
33138;SDS011;19501;50.948;5.316;2023-08-30T01:15:29;32.20;;;17.88;;
33138;SDS011;19501;50.948;5.316;2023-08-30T01:17:55;32.53;;;18.23;;
33138;SDS011;19501;50.948;5.316;2023-08-30T01:20:24;33.13;;;19.45;;
33138;SDS011;19501;50.948;5.316;2023-08-30T01:28:24;31.15;;;18.33;;
33138;SDS011;19501;50.948;5.316;2023-08-30T01:30:53;31.38;;;19.20;;
33138;SDS011;19501;50.948;5.316;2023-08-30T01:33:20;34.05;;;18.92;;
33138;SDS011;19501;50.948;5.316;2023-08-30T01:35:47;32.35;;;18.70;;
33138;SDS011;19501;50.948;5.316;2023-08-30T01:38:13;32.72;;;19.75;;
33138;SDS011;19501;50.948;5.316;2023-08-30T01:40:41;33.42;;;19.95;;
33138;SDS011;19501;50.948;5.316;2023-08-30T01:43:08;33.47;;;19.60;;
33138;SDS011;19501;50.948;5.316;2023-08-30T01:45:36;32.97;;;18.55;;
33138;SDS011;19501;50.948;5.316;2023-08-30T01:48:06;30.73;;;18.50;;
33138;SDS011;19501;50.948;5.316;2023-08-30T01:50:34;36.10;;;18.42;;
33138;SDS011;19501;50.948;5.316;2023-08-30T01:53:00;32.67;;;19.42;;
33138;SDS011;19501;50.948;5.316;2023-08-30T01:55:28;29.05;;;17.83;;
33138;SDS011;19501;50.948;5.316;2023-08-30T01:57:55;32.65;;;18.33;;
33138;SDS011;19501;50.948;5.316;2023-08-30T02:00:21;31.95;;;18.88;;
33138;SDS011;19501;50.948;5.316;2023-08-30T02:02:47;34.50;;;18.95;;
33138;SDS011;19501;50.948;5.316;2023-08-30T02:05:13;31.23;;;18.13;;
33138;SDS011;19501;50.948;5.316;2023-08-30T02:08:22;31.77;;;17.75;;
33138;SDS011;19501;50.948;5.316;2023-08-30T02:10:28;33.70;;;19.23;;
33138;SDS011;19501;50.948;5.316;2023-08-30T02:12:59;33.80;;;18.92;;
33138;SDS011;19501;50.948;5.316;2023-08-30T02:15:28;30.63;;;18.45;;
33138;SDS011;19501;50.948;5.316;2023-08-30T02:17:59;33.00;;;18.48;;
33138;SDS011;19501;50.948;5.316;2023-08-30T02:20:25;32.20;;;18.77;;
33138;SDS011;19501;50.948;5.316;2023-08-30T02:22:51;29.60;;;18.45;;
33138;SDS011;19501;50.948;5.316;2023-08-30T02:25:17;35.42;;;19.30;;
33138;SDS011;19501;50.948;5.316;2023-08-30T02:27:42;35.63;;;19.75;;
33138;SDS011;19501;50.948;5.316;2023-08-30T02:30:08;31.98;;;19.08;;
33138;SDS011;19501;50.948;5.316;2023-08-30T02:32:36;33.92;;;19.05;;
33138;SDS011;19501;50.948;5.316;2023-08-30T02:35:02;32.63;;;18.38;;
33138;SDS011;19501;50.948;5.316;2023-08-30T02:37:28;33.13;;;18.35;;
33138;SDS011;19501;50.948;5.316;2023-08-30T02:39:54;37.38;;;19.27;;
33138;SDS011;19501;50.948;5.316;2023-08-30T02:42:19;37.20;;;19.95;;
33138;SDS011;19501;50.948;5.316;2023-08-30T02:44:45;35.22;;;19.15;;
33138;SDS011;19501;50.948;5.316;2023-08-30T02:47:10;31.48;;;18.60;;
33138;SDS011;19501;50.948;5.316;2023-08-30T02:49:36;33.33;;;19.77;;
33138;SDS011;19501;50.948;5.316;2023-08-30T02:52:02;35.35;;;21.20;;
33138;SDS011;19501;50.948;5.316;2023-08-30T02:54:28;30.38;;;18.52;;
33138;SDS011;19501;50.948;5.316;2023-08-30T02:56:53;31.83;;;19.23;;
33138;SDS011;19501;50.948;5.316;2023-08-30T02:59:19;32.50;;;19.33;;
33138;SDS011;19501;50.948;5.316;2023-08-30T03:01:44;31.40;;;19.27;;
33138;SDS011;19501;50.948;5.316;2023-08-30T03:04:10;35.10;;;20.40;;
33138;SDS011;19501;50.948;5.316;2023-08-30T03:06:36;33.53;;;19.63;;
33138;SDS011;19501;50.948;5.316;2023-08-30T03:09:02;34.13;;;20.33;;
33138;SDS011;19501;50.948;5.316;2023-08-30T03:11:28;31.65;;;18.83;;
33138;SDS011;19501;50.948;5.316;2023-08-30T03:13:54;33.20;;;18.75;;
33138;SDS011;19501;50.948;5.316;2023-08-30T03:16:20;32.10;;;19.83;;
33138;SDS011;19501;50.948;5.316;2023-08-30T03:18:46;35.75;;;20.33;;
33138;SDS011;19501;50.948;5.316;2023-08-30T03:21:12;36.28;;;20.52;;
33138;SDS011;19501;50.948;5.316;2023-08-30T03:23:38;37.65;;;20.27;;
33138;SDS011;19501;50.948;5.316;2023-08-30T03:26:12;35.28;;;20.65;;
33138;SDS011;19501;50.948;5.316;2023-08-30T03:28:42;32.40;;;20.02;;
33138;SDS011;19501;50.948;5.316;2023-08-30T03:33:41;31.85;;;18.80;;
33138;SDS011;19501;50.948;5.316;2023-08-30T03:36:07;33.13;;;18.90;;
33138;SDS011;19501;50.948;5.316;2023-08-30T03:38:35;33.67;;;19.17;;
33138;SDS011;19501;50.948;5.316;2023-08-30T03:41:01;32.03;;;19.55;;
33138;SDS011;19501;50.948;5.316;2023-08-30T03:43:28;34.72;;;20.10;;
33138;SDS011;19501;50.948;5.316;2023-08-30T03:45:54;34.22;;;20.38;;
33138;SDS011;19501;50.948;5.316;2023-08-30T03:48:19;36.85;;;21.85;;
33138;SDS011;19501;50.948;5.316;2023-08-30T03:50:45;34.88;;;19.88;;
33138;SDS011;19501;50.948;5.316;2023-08-30T03:53:10;37.58;;;20.77;;
33138;SDS011;19501;50.948;5.316;2023-08-30T03:55:38;34.03;;;19.92;;
33138;SDS011;19501;50.948;5.316;2023-08-30T03:58:05;34.47;;;20.30;;
33138;SDS011;19501;50.948;5.316;2023-08-30T04:00:31;35.58;;;20.42;;
33138;SDS011;19501;50.948;5.316;2023-08-30T04:02:59;37.25;;;21.23;;
33138;SDS011;19501;50.948;5.316;2023-08-30T04:05:25;33.53;;;20.52;;
33138;SDS011;19501;50.948;5.316;2023-08-30T04:07:51;34.80;;;21.25;;
33138;SDS011;19501;50.948;5.316;2023-08-30T04:10:16;32.45;;;20.42;;
33138;SDS011;19501;50.948;5.316;2023-08-30T04:12:42;36.85;;;21.85;;
33138;SDS011;19501;50.948;5.316;2023-08-30T04:15:08;40.97;;;22.85;;
33138;SDS011;19501;50.948;5.316;2023-08-30T04:17:35;34.90;;;21.90;;
33138;SDS011;19501;50.948;5.316;2023-08-30T04:20:01;38.35;;;23.95;;
33138;SDS011;19501;50.948;5.316;2023-08-30T04:22:29;36.00;;;22.33;;
33138;SDS011;19501;50.948;5.316;2023-08-30T04:24:54;38.15;;;22.58;;
33138;SDS011;19501;50.948;5.316;2023-08-30T04:27:20;34.90;;;21.20;;
33138;SDS011;19501;50.948;5.316;2023-08-30T04:29:45;38.95;;;22.63;;
33138;SDS011;19501;50.948;5.316;2023-08-30T04:32:12;38.97;;;22.98;;
33138;SDS011;19501;50.948;5.316;2023-08-30T04:34:38;39.53;;;22.60;;
33138;SDS011;19501;50.948;5.316;2023-08-30T04:37:04;39.65;;;24.45;;
33138;SDS011;19501;50.948;5.316;2023-08-30T04:39:29;36.63;;;22.85;;
33138;SDS011;19501;50.948;5.316;2023-08-30T04:41:55;39.22;;;23.65;;
33138;SDS011;19501;50.948;5.316;2023-08-30T04:44:21;40.25;;;23.30;;
33138;SDS011;19501;50.948;5.316;2023-08-30T04:46:49;42.25;;;24.42;;
33138;SDS011;19501;50.948;5.316;2023-08-30T04:49:17;37.78;;;23.67;;
33138;SDS011;19501;50.948;5.316;2023-08-30T04:51:43;37.05;;;23.17;;
33138;SDS011;19501;50.948;5.316;2023-08-30T04:54:09;36.67;;;22.08;;
33138;SDS011;19501;50.948;5.316;2023-08-30T04:56:34;39.88;;;23.65;;
33138;SDS011;19501;50.948;5.316;2023-08-30T04:59:00;38.03;;;22.63;;
33138;SDS011;19501;50.948;5.316;2023-08-30T05:01:29;37.22;;;21.13;;
33138;SDS011;19501;50.948;5.316;2023-08-30T05:03:55;42.53;;;22.75;;
33138;SDS011;19501;50.948;5.316;2023-08-30T05:06:20;36.53;;;22.15;;
33138;SDS011;19501;50.948;5.316;2023-08-30T05:08:46;36.88;;;22.25;;
33138;SDS011;19501;50.948;5.316;2023-08-30T05:11:12;38.45;;;21.58;;
33138;SDS011;19501;50.948;5.316;2023-08-30T05:13:37;33.17;;;21.55;;
33138;SDS011;19501;50.948;5.316;2023-08-30T05:16:04;40.17;;;22.30;;
33138;SDS011;19501;50.948;5.316;2023-08-30T05:18:29;34.53;;;21.40;;
33138;SDS011;19501;50.948;5.316;2023-08-30T05:20:55;37.03;;;22.38;;
33138;SDS011;19501;50.948;5.316;2023-08-30T05:23:21;37.00;;;21.52;;
33138;SDS011;19501;50.948;5.316;2023-08-30T05:25:46;36.40;;;22.00;;
33138;SDS011;19501;50.948;5.316;2023-08-30T05:28:12;32.35;;;19.70;;
33138;SDS011;19501;50.948;5.316;2023-08-30T05:30:39;40.55;;;20.67;;
33138;SDS011;19501;50.948;5.316;2023-08-30T05:33:06;35.78;;;19.95;;
33138;SDS011;19501;50.948;5.316;2023-08-30T05:35:32;34.83;;;20.35;;
33138;SDS011;19501;50.948;5.316;2023-08-30T05:37:58;32.30;;;18.45;;
33138;SDS011;19501;50.948;5.316;2023-08-30T05:40:23;31.35;;;19.05;;
33138;SDS011;19501;50.948;5.316;2023-08-30T05:42:49;30.35;;;16.85;;
33138;SDS011;19501;50.948;5.316;2023-08-30T05:45:15;30.40;;;17.35;;
33138;SDS011;19501;50.948;5.316;2023-08-30T05:47:43;31.30;;;16.58;;
33138;SDS011;19501;50.948;5.316;2023-08-30T05:50:09;29.10;;;16.10;;
33138;SDS011;19501;50.948;5.316;2023-08-30T05:52:34;29.58;;;17.75;;
33138;SDS011;19501;50.948;5.316;2023-08-30T05:55:00;26.02;;;14.98;;
33138;SDS011;19501;50.948;5.316;2023-08-30T05:57:26;27.92;;;14.73;;
33138;SDS011;19501;50.948;5.316;2023-08-30T05:59:53;28.52;;;15.85;;
33138;SDS011;19501;50.948;5.316;2023-08-30T06:02:19;25.95;;;15.07;;
33138;SDS011;19501;50.948;5.316;2023-08-30T06:04:45;24.52;;;13.88;;
33138;SDS011;19501;50.948;5.316;2023-08-30T06:07:10;27.58;;;14.60;;
33138;SDS011;19501;50.948;5.316;2023-08-30T06:09:36;25.95;;;14.52;;
33138;SDS011;19501;50.948;5.316;2023-08-30T06:12:02;28.30;;;13.98;;
33138;SDS011;19501;50.948;5.316;2023-08-30T06:14:28;28.60;;;14.13;;
33138;SDS011;19501;50.948;5.316;2023-08-30T06:16:54;25.42;;;12.25;;
33138;SDS011;19501;50.948;5.316;2023-08-30T06:19:20;27.52;;;13.68;;
33138;SDS011;19501;50.948;5.316;2023-08-30T06:21:45;26.77;;;13.23;;
33138;SDS011;19501;50.948;5.316;2023-08-30T06:24:11;25.30;;;13.52;;
33138;SDS011;19501;50.948;5.316;2023-08-30T06:26:36;27.48;;;12.77;;
33138;SDS011;19501;50.948;5.316;2023-08-30T06:29:04;24.42;;;12.68;;
33138;SDS011;19501;50.948;5.316;2023-08-30T06:31:30;25.63;;;12.55;;
33138;SDS011;19501;50.948;5.316;2023-08-30T06:33:57;25.05;;;11.40;;
33138;SDS011;19501;50.948;5.316;2023-08-30T06:36:23;27.33;;;11.43;;
33138;SDS011;19501;50.948;5.316;2023-08-30T06:38:49;23.35;;;10.82;;
33138;SDS011;19501;50.948;5.316;2023-08-30T06:41:14;23.30;;;9.60;;
33138;SDS011;19501;50.948;5.316;2023-08-30T06:43:40;21.88;;;8.70;;
33138;SDS011;19501;50.948;5.316;2023-08-30T06:46:06;20.33;;;7.80;;
33138;SDS011;19501;50.948;5.316;2023-08-30T06:48:31;20.10;;;7.72;;
33138;SDS011;19501;50.948;5.316;2023-08-30T06:50:59;21.73;;;7.65;;
33138;SDS011;19501;50.948;5.316;2023-08-30T06:53:26;17.85;;;7.28;;
33138;SDS011;19501;50.948;5.316;2023-08-30T06:56:00;14.57;;;6.22;;
33138;SDS011;19501;50.948;5.316;2023-08-30T06:58:27;17.67;;;6.68;;
33138;SDS011;19501;50.948;5.316;2023-08-30T07:00:53;14.77;;;6.18;;
33138;SDS011;19501;50.948;5.316;2023-08-30T07:03:19;16.50;;;6.88;;
33138;SDS011;19501;50.948;5.316;2023-08-30T07:05:44;16.40;;;5.72;;
33138;SDS011;19501;50.948;5.316;2023-08-30T07:08:12;15.93;;;5.72;;
33138;SDS011;19501;50.948;5.316;2023-08-30T07:10:41;17.42;;;5.50;;
33138;SDS011;19501;50.948;5.316;2023-08-30T07:13:07;13.88;;;5.18;;
33138;SDS011;19501;50.948;5.316;2023-08-30T07:15:36;13.07;;;5.57;;
33138;SDS011;19501;50.948;5.316;2023-08-30T07:18:09;15.70;;;5.72;;
33138;SDS011;19501;50.948;5.316;2023-08-30T07:20:35;14.20;;;5.57;;
33138;SDS011;19501;50.948;5.316;2023-08-30T07:23:03;15.30;;;5.85;;
33138;SDS011;19501;50.948;5.316;2023-08-30T07:25:32;13.98;;;5.47;;
33138;SDS011;19501;50.948;5.316;2023-08-30T07:27:59;19.50;;;6.28;;
33138;SDS011;19501;50.948;5.316;2023-08-30T07:30:25;18.40;;;5.30;;
33138;SDS011;19501;50.948;5.316;2023-08-30T07:32:51;16.00;;;5.88;;
33138;SDS011;19501;50.948;5.316;2023-08-30T07:35:16;15.30;;;6.25;;
33138;SDS011;19501;50.948;5.316;2023-08-30T07:37:42;18.90;;;6.40;;
33138;SDS011;19501;50.948;5.316;2023-08-30T07:40:08;16.23;;;5.78;;
33138;SDS011;19501;50.948;5.316;2023-08-30T07:42:34;22.75;;;6.63;;
33138;SDS011;19501;50.948;5.316;2023-08-30T07:45:00;18.92;;;6.68;;
33138;SDS011;19501;50.948;5.316;2023-08-30T07:47:25;13.23;;;5.07;;
33138;SDS011;19501;50.948;5.316;2023-08-30T07:49:51;14.48;;;5.65;;
33138;SDS011;19501;50.948;5.316;2023-08-30T07:52:17;16.40;;;5.53;;
33138;SDS011;19501;50.948;5.316;2023-08-30T07:54:42;19.23;;;6.18;;
33138;SDS011;19501;50.948;5.316;2023-08-30T07:57:08;13.02;;;5.70;;
33138;SDS011;19501;50.948;5.316;2023-08-30T07:59:35;16.65;;;6.82;;
33138;SDS011;19501;50.948;5.316;2023-08-30T08:02:02;16.65;;;7.15;;
33138;SDS011;19501;50.948;5.316;2023-08-30T08:04:29;21.55;;;7.47;;
33138;SDS011;19501;50.948;5.316;2023-08-30T08:06:54;17.38;;;7.55;;
33138;SDS011;19501;50.948;5.316;2023-08-30T08:09:20;17.88;;;7.68;;
33138;SDS011;19501;50.948;5.316;2023-08-30T08:11:48;18.15;;;7.57;;
33138;SDS011;19501;50.948;5.316;2023-08-30T08:14:14;20.00;;;8.68;;
33138;SDS011;19501;50.948;5.316;2023-08-30T08:16:40;20.08;;;8.05;;
33138;SDS011;19501;50.948;5.316;2023-08-30T08:19:06;20.58;;;7.70;;
33138;SDS011;19501;50.948;5.316;2023-08-30T08:21:32;20.63;;;8.68;;
33138;SDS011;19501;50.948;5.316;2023-08-30T08:24:01;20.67;;;7.45;;
33138;SDS011;19501;50.948;5.316;2023-08-30T08:26:26;21.50;;;9.60;;
33138;SDS011;19501;50.948;5.316;2023-08-30T08:28:53;19.75;;;8.57;;
33138;SDS011;19501;50.948;5.316;2023-08-30T08:31:20;19.75;;;8.57;;
33138;SDS011;19501;50.948;5.316;2023-08-30T08:33:45;21.88;;;9.43;;
33138;SDS011;19501;50.948;5.316;2023-08-30T08:36:11;22.00;;;10.00;;
33138;SDS011;19501;50.948;5.316;2023-08-30T08:38:37;23.38;;;10.85;;
33138;SDS011;19501;50.948;5.316;2023-08-30T08:41:07;27.70;;;12.48;;
33138;SDS011;19501;50.948;5.316;2023-08-30T08:43:37;23.48;;;10.40;;
33138;SDS011;19501;50.948;5.316;2023-08-30T08:46:05;27.77;;;10.48;;
33138;SDS011;19501;50.948;5.316;2023-08-30T08:48:33;25.27;;;11.23;;
33138;SDS011;19501;50.948;5.316;2023-08-30T08:53:30;25.17;;;11.23;;
33138;SDS011;19501;50.948;5.316;2023-08-30T08:55:56;25.95;;;12.25;;
33138;SDS011;19501;50.948;5.316;2023-08-30T08:58:23;26.23;;;11.00;;
33138;SDS011;19501;50.948;5.316;2023-08-30T09:00:49;24.08;;;9.60;;
33138;SDS011;19501;50.948;5.316;2023-08-30T09:03:15;24.50;;;9.48;;
33138;SDS011;19501;50.948;5.316;2023-08-30T09:05:43;0.30;;;0.30;;
33138;SDS011;19501;50.948;5.316;2023-08-30T09:08:11;0.55;;;0.55;;
33138;SDS011;19501;50.948;5.316;2023-08-30T09:10:40;0.85;;;0.85;;
33138;SDS011;19501;50.948;5.316;2023-08-30T09:13:06;0.30;;;0.30;;
33138;SDS011;19501;50.948;5.316;2023-08-30T09:15:32;0.40;;;0.40;;
33138;SDS011;19501;50.948;5.316;2023-08-30T09:17:58;0.40;;;0.40;;
33138;SDS011;19501;50.948;5.316;2023-08-30T09:20:24;0.40;;;0.40;;
33138;SDS011;19501;50.948;5.316;2023-08-30T09:22:50;0.30;;;0.30;;
33138;SDS011;19501;50.948;5.316;2023-08-30T09:25:22;1.00;;;0.95;;
33138;SDS011;19501;50.948;5.316;2023-08-30T09:27:50;0.30;;;0.30;;
33138;SDS011;19501;50.948;5.316;2023-08-30T09:30:22;0.30;;;0.30;;
33138;SDS011;19501;50.948;5.316;2023-08-30T09:32:48;0.40;;;0.40;;
33138;SDS011;19501;50.948;5.316;2023-08-30T09:35:14;1.25;;;1.15;;
33138;SDS011;19501;50.948;5.316;2023-08-30T09:37:39;0.30;;;0.30;;
33138;SDS011;19501;50.948;5.316;2023-08-30T09:40:07;0.57;;;0.57;;
33138;SDS011;19501;50.948;5.316;2023-08-30T09:42:33;1.20;;;1.10;;
33138;SDS011;19501;50.948;5.316;2023-08-30T09:44:59;0.63;;;0.63;;
33138;SDS011;19501;50.948;5.316;2023-08-30T09:47:24;0.30;;;0.30;;
33138;SDS011;19501;50.948;5.316;2023-08-30T09:49:56;0.30;;;0.30;;
33138;SDS011;19501;50.948;5.316;2023-08-30T09:52:25;0.30;;;0.30;;
33138;SDS011;19501;50.948;5.316;2023-08-30T09:54:55;0.40;;;0.40;;
33138;SDS011;19501;50.948;5.316;2023-08-30T09:57:21;0.20;;;0.20;;
33138;SDS011;19501;50.948;5.316;2023-08-30T09:59:48;0.40;;;0.40;;
33138;SDS011;19501;50.948;5.316;2023-08-30T10:02:14;0.30;;;0.30;;
33138;SDS011;19501;50.948;5.316;2023-08-30T10:04:40;0.40;;;0.40;;
33138;SDS011;19501;50.948;5.316;2023-08-30T10:07:08;0.52;;;0.52;;
33138;SDS011;19501;50.948;5.316;2023-08-30T10:09:36;0.40;;;0.40;;
33138;SDS011;19501;50.948;5.316;2023-08-30T10:12:04;0.40;;;0.40;;
33138;SDS011;19501;50.948;5.316;2023-08-30T10:14:31;0.40;;;0.40;;
33138;SDS011;19501;50.948;5.316;2023-08-30T10:17:01;0.40;;;0.40;;
33138;SDS011;19501;50.948;5.316;2023-08-30T10:19:30;0.30;;;0.30;;
33138;SDS011;19501;50.948;5.316;2023-08-30T10:22:01;0.30;;;0.30;;
33138;SDS011;19501;50.948;5.316;2023-08-30T10:24:39;0.30;;;0.30;;
33138;SDS011;19501;50.948;5.316;2023-08-30T10:27:11;0.30;;;0.30;;
33138;SDS011;19501;50.948;5.316;2023-08-30T10:29:39;0.40;;;0.40;;
33138;SDS011;19501;50.948;5.316;2023-08-30T10:32:07;1.95;;;1.17;;
33138;SDS011;19501;50.948;5.316;2023-08-30T10:34:34;0.30;;;0.30;;
33138;SDS011;19501;50.948;5.316;2023-08-30T10:37:01;0.38;;;0.38;;
33138;SDS011;19501;50.948;5.316;2023-08-30T10:39:41;0.30;;;0.30;;
33138;SDS011;19501;50.948;5.316;2023-08-30T10:42:08;0.30;;;0.30;;
33138;SDS011;19501;50.948;5.316;2023-08-30T10:44:47;0.32;;;0.32;;
33138;SDS011;19501;50.948;5.316;2023-08-30T10:50:06;0.40;;;0.40;;
33138;SDS011;19501;50.948;5.316;2023-08-30T10:52:33;0.30;;;0.30;;
33138;SDS011;19501;50.948;5.316;2023-08-30T10:55:06;0.40;;;0.40;;
33138;SDS011;19501;50.948;5.316;2023-08-30T10:57:33;0.77;;;0.77;;
33138;SDS011;19501;50.948;5.316;2023-08-30T11:00:08;0.30;;;0.30;;
33138;SDS011;19501;50.948;5.316;2023-08-30T11:02:43;0.77;;;0.77;;
33138;SDS011;19501;50.948;5.316;2023-08-30T11:05:11;0.30;;;0.30;;
33138;SDS011;19501;50.948;5.316;2023-08-30T11:07:37;0.40;;;0.40;;
33138;SDS011;19501;50.948;5.316;2023-08-30T11:10:06;0.32;;;0.32;;
33138;SDS011;19501;50.948;5.316;2023-08-30T11:12:32;5.40;;;1.38;;
33138;SDS011;19501;50.948;5.316;2023-08-30T11:14:58;0.30;;;0.30;;
33138;SDS011;19501;50.948;5.316;2023-08-30T11:17:25;0.30;;;0.30;;
33138;SDS011;19501;50.948;5.316;2023-08-30T11:19:57;12.07;;;9.63;;
33138;SDS011;19501;50.948;5.316;2023-08-30T11:22:29;0.30;;;0.30;;
33138;SDS011;19501;50.948;5.316;2023-08-30T11:24:55;0.30;;;0.30;;
33138;SDS011;19501;50.948;5.316;2023-08-30T11:27:21;0.30;;;0.30;;
33138;SDS011;19501;50.948;5.316;2023-08-30T11:29:46;0.40;;;0.40;;
33138;SDS011;19501;50.948;5.316;2023-08-30T11:32:14;0.30;;;0.30;;
33138;SDS011;19501;50.948;5.316;2023-08-30T11:34:41;0.30;;;0.30;;
33138;SDS011;19501;50.948;5.316;2023-08-30T11:37:07;0.40;;;0.40;;
33138;SDS011;19501;50.948;5.316;2023-08-30T11:39:33;0.30;;;0.30;;
33138;SDS011;19501;50.948;5.316;2023-08-30T11:41:59;0.30;;;0.30;;
33138;SDS011;19501;50.948;5.316;2023-08-30T11:44:24;0.30;;;0.30;;
33138;SDS011;19501;50.948;5.316;2023-08-30T11:46:57;0.50;;;0.50;;
33138;SDS011;19501;50.948;5.316;2023-08-30T11:49:24;0.30;;;0.30;;
33138;SDS011;19501;50.948;5.316;2023-08-30T11:51:50;0.30;;;0.30;;
33138;SDS011;19501;50.948;5.316;2023-08-30T11:54:18;1.08;;;0.95;;
33138;SDS011;19501;50.948;5.316;2023-08-30T11:56:45;0.70;;;0.70;;
33138;SDS011;19501;50.948;5.316;2023-08-30T11:59:18;0.30;;;0.30;;
33138;SDS011;19501;50.948;5.316;2023-08-30T12:01:45;0.55;;;0.55;;
33138;SDS011;19501;50.948;5.316;2023-08-30T12:04:10;0.30;;;0.30;;
33138;SDS011;19501;50.948;5.316;2023-08-30T12:06:36;0.30;;;0.30;;
33138;SDS011;19501;50.948;5.316;2023-08-30T12:09:02;0.30;;;0.30;;
33138;SDS011;19501;50.948;5.316;2023-08-30T12:11:31;0.40;;;0.40;;
33138;SDS011;19501;50.948;5.316;2023-08-30T12:14:01;0.30;;;0.30;;
33138;SDS011;19501;50.948;5.316;2023-08-30T12:16:27;0.30;;;0.30;;
33138;SDS011;19501;50.948;5.316;2023-08-30T12:18:53;0.30;;;0.30;;
33138;SDS011;19501;50.948;5.316;2023-08-30T12:21:18;0.30;;;0.30;;
33138;SDS011;19501;50.948;5.316;2023-08-30T12:23:44;0.40;;;0.40;;
33138;SDS011;19501;50.948;5.316;2023-08-30T12:26:10;0.40;;;0.40;;
33138;SDS011;19501;50.948;5.316;2023-08-30T12:28:36;0.40;;;0.40;;
33138;SDS011;19501;50.948;5.316;2023-08-30T12:31:06;0.40;;;0.40;;
33138;SDS011;19501;50.948;5.316;2023-08-30T12:33:35;0.40;;;0.40;;
33138;SDS011;19501;50.948;5.316;2023-08-30T12:36:01;0.35;;;0.35;;
33138;SDS011;19501;50.948;5.316;2023-08-30T12:38:28;0.30;;;0.30;;
33138;SDS011;19501;50.948;5.316;2023-08-30T12:40:54;0.40;;;0.40;;
33138;SDS011;19501;50.948;5.316;2023-08-30T12:43:20;0.30;;;0.30;;
33138;SDS011;19501;50.948;5.316;2023-08-30T12:45:47;0.40;;;0.40;;
33138;SDS011;19501;50.948;5.316;2023-08-30T12:48:14;0.40;;;0.40;;
33138;SDS011;19501;50.948;5.316;2023-08-30T12:50:41;0.70;;;0.70;;
33138;SDS011;19501;50.948;5.316;2023-08-30T12:53:08;0.30;;;0.30;;
33138;SDS011;19501;50.948;5.316;2023-08-30T12:55:36;0.40;;;0.40;;
33138;SDS011;19501;50.948;5.316;2023-08-30T12:58:05;0.30;;;0.30;;
33138;SDS011;19501;50.948;5.316;2023-08-30T13:00:32;0.65;;;0.65;;
33138;SDS011;19501;50.948;5.316;2023-08-30T13:03:01;0.30;;;0.30;;
33138;SDS011;19501;50.948;5.316;2023-08-30T13:05:28;0.40;;;0.40;;
33138;SDS011;19501;50.948;5.316;2023-08-30T13:07:55;0.30;;;0.30;;
33138;SDS011;19501;50.948;5.316;2023-08-30T13:10:23;0.30;;;0.30;;
33138;SDS011;19501;50.948;5.316;2023-08-30T13:12:49;0.30;;;0.30;;
33138;SDS011;19501;50.948;5.316;2023-08-30T13:15:21;0.30;;;0.30;;
33138;SDS011;19501;50.948;5.316;2023-08-30T13:17:46;0.50;;;0.50;;
33138;SDS011;19501;50.948;5.316;2023-08-30T13:20:12;0.40;;;0.40;;
33138;SDS011;19501;50.948;5.316;2023-08-30T13:22:38;0.30;;;0.30;;
33138;SDS011;19501;50.948;5.316;2023-08-30T13:25:03;0.40;;;0.40;;
33138;SDS011;19501;50.948;5.316;2023-08-30T13:27:30;0.40;;;0.40;;
33138;SDS011;19501;50.948;5.316;2023-08-30T13:29:55;0.30;;;0.30;;
33138;SDS011;19501;50.948;5.316;2023-08-30T13:32:21;0.30;;;0.30;;
33138;SDS011;19501;50.948;5.316;2023-08-30T13:34:47;0.30;;;0.30;;
33138;SDS011;19501;50.948;5.316;2023-08-30T13:37:13;0.30;;;0.30;;
33138;SDS011;19501;50.948;5.316;2023-08-30T13:39:39;1.48;;;1.05;;
33138;SDS011;19501;50.948;5.316;2023-08-30T13:42:05;39.45;;;2.55;;
33138;SDS011;19501;50.948;5.316;2023-08-30T13:44:30;8.18;;;3.40;;
33138;SDS011;19501;50.948;5.316;2023-08-30T13:46:57;0.30;;;0.30;;
33138;SDS011;19501;50.948;5.316;2023-08-30T13:49:23;0.40;;;0.40;;
33138;SDS011;19501;50.948;5.316;2023-08-30T13:51:48;0.30;;;0.30;;
33138;SDS011;19501;50.948;5.316;2023-08-30T13:54:14;0.38;;;0.38;;
33138;SDS011;19501;50.948;5.316;2023-08-30T13:56:40;0.30;;;0.30;;
33138;SDS011;19501;50.948;5.316;2023-08-30T13:59:06;0.30;;;0.30;;
33138;SDS011;19501;50.948;5.316;2023-08-30T14:01:32;0.30;;;0.30;;
33138;SDS011;19501;50.948;5.316;2023-08-30T14:04:00;0.30;;;0.30;;
33138;SDS011;19501;50.948;5.316;2023-08-30T14:06:29;0.40;;;0.40;;
33138;SDS011;19501;50.948;5.316;2023-08-30T14:08:55;0.40;;;0.40;;
33138;SDS011;19501;50.948;5.316;2023-08-30T14:11:21;0.40;;;0.40;;
33138;SDS011;19501;50.948;5.316;2023-08-30T14:13:47;0.40;;;0.40;;
33138;SDS011;19501;50.948;5.316;2023-08-30T14:16:13;0.40;;;0.40;;
33138;SDS011;19501;50.948;5.316;2023-08-30T14:18:39;0.30;;;0.30;;
33138;SDS011;19501;50.948;5.316;2023-08-30T14:21:05;1.15;;;1.15;;
33138;SDS011;19501;50.948;5.316;2023-08-30T14:23:30;0.30;;;0.30;;
33138;SDS011;19501;50.948;5.316;2023-08-30T14:26:00;0.30;;;0.30;;
33138;SDS011;19501;50.948;5.316;2023-08-30T14:28:34;0.30;;;0.30;;
33138;SDS011;19501;50.948;5.316;2023-08-30T14:31:02;0.35;;;0.35;;
33138;SDS011;19501;50.948;5.316;2023-08-30T14:33:31;4.22;;;1.15;;
33138;SDS011;19501;50.948;5.316;2023-08-30T14:35:57;13.13;;;3.85;;
33138;SDS011;19501;50.948;5.316;2023-08-30T14:38:23;12.55;;;3.78;;
33138;SDS011;19501;50.948;5.316;2023-08-30T14:40:55;13.00;;;3.40;;
33138;SDS011;19501;50.948;5.316;2023-08-30T14:43:21;12.77;;;3.40;;
33138;SDS011;19501;50.948;5.316;2023-08-30T14:45:47;13.05;;;3.35;;